createdAt,value
2023-01-25T00:01:16.655Z,0.40
2023-01-25T00:03:43.592Z,0.40
2023-01-25T00:06:10.481Z,0.40
2023-01-25T00:08:38.623Z,0.50
2023-01-25T00:11:05.579Z,0.50
2023-01-25T00:13:32.559Z,0.50
2023-01-25T00:16:09.781Z,0.50
2023-01-25T00:18:43.381Z,0.50
2023-01-25T00:21:18.169Z,0.50
2023-01-25T00:23:45.220Z,0.50
2023-01-25T00:26:12.283Z,0.50
2023-01-25T00:28:39.366Z,0.50
2023-01-25T00:31:07.257Z,0.50
2023-01-25T00:33:34.205Z,0.60
2023-01-25T00:36:02.231Z,0.60
2023-01-25T00:38:30.546Z,0.60
2023-01-25T00:40:58.016Z,0.60
2023-01-25T00:43:25.048Z,0.60
2023-01-25T00:45:52.327Z,0.50
2023-01-25T00:48:19.353Z,0.50
2023-01-25T00:50:46.317Z,0.50
2023-01-25T00:53:13.536Z,0.60
2023-01-25T00:55:40.582Z,0.60
2023-01-25T00:58:07.484Z,0.60
2023-01-25T01:00:34.493Z,0.60
2023-01-25T01:03:02.396Z,0.60
2023-01-25T01:05:29.596Z,0.60
2023-01-25T01:07:56.731Z,0.60
2023-01-25T01:10:23.735Z,0.60
2023-01-25T01:12:51.653Z,0.70
2023-01-25T01:15:18.739Z,0.70
2023-01-25T01:17:45.750Z,0.70
2023-01-25T01:20:12.942Z,0.70
2023-01-25T01:22:40.267Z,0.70
2023-01-25T01:25:07.868Z,0.70
2023-01-25T01:27:35.092Z,0.70
2023-01-25T01:30:02.370Z,0.70
2023-01-25T01:32:29.597Z,0.70
2023-01-25T01:34:56.701Z,0.70
2023-01-25T01:37:23.607Z,0.70
2023-01-25T01:39:51.830Z,0.70
2023-01-25T01:42:18.771Z,0.70
2023-01-25T01:44:47.820Z,0.70
2023-01-25T01:47:22.339Z,0.80
2023-01-25T01:50:12.359Z,0.80
2023-01-25T01:52:39.446Z,0.80
2023-01-25T01:55:09.367Z,0.80
2023-01-25T01:57:50.331Z,0.80
2023-01-25T02:00:23.027Z,0.80
2023-01-25T02:02:50.645Z,0.80
2023-01-25T02:05:20.079Z,0.80
2023-01-25T02:08:01.664Z,0.80
2023-01-25T02:10:32.449Z,0.80
2023-01-25T02:13:00.668Z,0.80
2023-01-25T02:15:28.826Z,0.80
2023-01-25T02:17:55.817Z,0.80
2023-01-25T02:20:43.043Z,0.80
2023-01-25T02:23:13.113Z,0.80
2023-01-25T02:25:41.692Z,0.80
2023-01-25T02:28:17.073Z,0.80
2023-01-25T02:30:44.474Z,0.80
2023-01-25T02:33:11.616Z,0.80
2023-01-25T02:35:41.481Z,0.90
2023-01-25T02:38:09.944Z,0.80
2023-01-25T02:40:44.351Z,0.80
2023-01-25T02:43:11.718Z,0.80
2023-01-25T02:45:38.793Z,0.80
2023-01-25T02:48:13.017Z,0.80
2023-01-25T02:50:46.526Z,0.80
2023-01-25T02:53:13.575Z,0.80
2023-01-25T02:55:40.653Z,0.80
2023-01-25T02:58:08.662Z,0.80
2023-01-25T03:00:35.919Z,0.90
2023-01-25T03:03:03.801Z,0.90
2023-01-25T03:05:31.392Z,0.90
2023-01-25T03:07:58.809Z,0.90
2023-01-25T03:10:26.631Z,0.90
2023-01-25T03:12:55.439Z,0.90
2023-01-25T03:15:22.379Z,0.90
2023-01-25T03:17:49.472Z,0.90
2023-01-25T03:20:17.405Z,0.90
2023-01-25T03:22:51.197Z,0.90
2023-01-25T03:25:24.663Z,0.90
2023-01-25T03:28:05.509Z,1.00
2023-01-25T03:30:33.567Z,0.90
2023-01-25T03:33:00.648Z,1.00
2023-01-25T03:35:28.081Z,1.00
2023-01-25T03:37:55.516Z,1.00
2023-01-25T03:40:23.195Z,0.90
2023-01-25T03:42:50.525Z,1.00
2023-01-25T03:45:17.866Z,0.90
2023-01-25T03:47:44.899Z,1.00
2023-01-25T03:50:12.335Z,1.00
2023-01-25T03:52:42.251Z,1.00
2023-01-25T03:55:10.052Z,1.00
2023-01-25T03:57:55.849Z,1.00
2023-01-25T04:00:31.115Z,1.10
2023-01-25T04:03:01.167Z,1.00
2023-01-25T04:05:30.278Z,1.00
2023-01-25T04:07:57.730Z,1.00
2023-01-25T04:10:33.035Z,1.10
2023-01-25T04:13:00.052Z,1.10
2023-01-25T04:15:28.004Z,1.00
2023-01-25T04:17:59.281Z,1.00
2023-01-25T04:20:28.046Z,1.10
2023-01-25T04:23:04.987Z,1.10
2023-01-25T04:25:39.187Z,1.10
2023-01-25T04:28:12.080Z,1.10
2023-01-25T04:30:39.075Z,1.10
2023-01-25T04:33:06.912Z,1.10
2023-01-25T04:35:34.727Z,1.10
2023-01-25T04:38:03.062Z,1.10
2023-01-25T04:40:46.978Z,1.10
2023-01-25T04:43:28.003Z,1.10
2023-01-25T04:46:27.052Z,1.10
2023-01-25T04:48:54.973Z,1.10
2023-01-25T04:51:21.876Z,1.10
2023-01-25T04:53:48.995Z,1.10
2023-01-25T04:56:16.116Z,1.10
2023-01-25T04:58:48.630Z,1.10
2023-01-25T05:01:18.118Z,1.20
2023-01-25T05:03:45.355Z,1.10
2023-01-25T05:06:22.666Z,1.20
2023-01-25T05:08:49.830Z,1.20
2023-01-25T05:11:29.993Z,1.20
2023-01-25T05:14:22.048Z,1.10
2023-01-25T05:17:10.945Z,1.10
2023-01-25T05:19:44.688Z,1.10
2023-01-25T05:22:15.792Z,1.20
2023-01-25T05:24:47.867Z,1.20
2023-01-25T05:27:17.080Z,1.20
2023-01-25T05:29:56.934Z,1.20
2023-01-25T05:32:32.573Z,1.20
2023-01-25T05:35:01.203Z,1.30
2023-01-25T05:37:31.323Z,1.20
2023-01-25T05:40:02.954Z,1.20
2023-01-25T05:42:33.785Z,1.20
2023-01-25T05:45:01.787Z,1.30
2023-01-25T05:47:30.169Z,1.30
2023-01-25T05:50:04.252Z,1.30
2023-01-25T05:52:49.266Z,1.30
2023-01-25T05:55:16.429Z,1.30
2023-01-25T05:57:43.970Z,1.30
2023-01-25T06:00:11.885Z,1.30
2023-01-25T06:02:42.035Z,1.30
2023-01-25T06:05:13.895Z,1.30
2023-01-25T06:07:41.168Z,1.40
2023-01-25T06:10:22.000Z,1.40
2023-01-25T06:12:59.413Z,1.40
2023-01-25T06:15:26.860Z,1.40
2023-01-25T06:17:57.170Z,1.40
2023-01-25T06:20:36.309Z,1.40
2023-01-25T06:23:06.253Z,1.50
2023-01-25T06:25:33.216Z,1.50
2023-01-25T06:28:00.184Z,1.50
2023-01-25T06:30:27.261Z,1.50
2023-01-25T06:33:01.117Z,1.50
2023-01-25T06:35:35.056Z,1.50
2023-01-25T06:38:02.148Z,1.50
2023-01-25T06:40:29.109Z,1.50
2023-01-25T06:42:56.107Z,1.50
2023-01-25T06:45:23.099Z,1.50
2023-01-25T06:47:50.510Z,1.60
2023-01-25T06:50:17.520Z,1.60
2023-01-25T06:52:57.015Z,1.60
2023-01-25T06:55:30.756Z,1.50
2023-01-25T06:57:59.953Z,1.50
2023-01-25T07:00:29.327Z,1.60
2023-01-25T07:02:56.406Z,1.60
2023-01-25T07:05:24.210Z,1.60
2023-01-25T07:07:51.141Z,1.60
2023-01-25T07:10:18.035Z,1.60
2023-01-25T07:12:45.032Z,1.60
2023-01-25T07:15:12.172Z,1.60
2023-01-25T07:17:39.285Z,1.70
2023-01-25T07:20:06.565Z,1.70
2023-01-25T07:22:34.251Z,1.70
2023-01-25T07:25:02.329Z,1.70
2023-01-25T07:27:32.736Z,1.70
2023-01-25T07:29:59.763Z,1.70
2023-01-25T07:32:27.622Z,1.70
2023-01-25T07:34:54.557Z,1.80
2023-01-25T07:37:21.449Z,1.80
2023-01-25T07:39:50.700Z,1.80
2023-01-25T07:42:25.370Z,1.80
2023-01-25T07:45:26.067Z,1.80
2023-01-25T07:47:52.958Z,1.80
2023-01-25T07:50:19.962Z,1.80
2023-01-25T07:52:47.140Z,1.80
2023-01-25T07:55:14.225Z,1.90
2023-01-25T07:57:41.176Z,1.80
2023-01-25T08:00:10.041Z,1.90
2023-01-25T08:02:39.482Z,1.90
2023-01-25T08:05:06.968Z,1.90
2023-01-25T08:07:34.320Z,1.90
2023-01-25T08:10:01.272Z,1.90
2023-01-25T08:12:28.921Z,1.90
2023-01-25T08:14:55.873Z,1.90
2023-01-25T08:17:23.027Z,1.90
2023-01-25T08:19:49.994Z,1.90
2023-01-25T08:22:16.940Z,1.90
2023-01-25T08:24:44.892Z,2.00
2023-01-25T08:27:11.880Z,1.90
2023-01-25T08:29:45.202Z,1.90
2023-01-25T08:32:18.909Z,2.00
2023-01-25T08:34:45.873Z,1.90
2023-01-25T08:37:12.864Z,2.00
2023-01-25T08:39:40.034Z,2.00
2023-01-25T08:42:07.007Z,2.00
2023-01-25T08:44:34.028Z,2.00
2023-01-25T08:47:01.052Z,2.00
2023-01-25T08:49:28.092Z,2.00
2023-01-25T08:51:55.087Z,2.00
2023-01-25T08:54:22.139Z,2.00
2023-01-25T08:56:49.113Z,2.10
2023-01-25T08:59:29.197Z,2.10
2023-01-25T09:02:09.267Z,2.00
2023-01-25T09:04:42.839Z,2.10
2023-01-25T09:07:09.786Z,2.10
2023-01-25T09:09:36.870Z,2.10
2023-01-25T09:12:04.185Z,2.10
2023-01-25T09:14:31.207Z,2.10
2023-01-25T09:16:58.304Z,2.10
2023-01-25T09:19:25.357Z,2.10
2023-01-25T09:21:52.447Z,2.10
2023-01-25T09:24:19.463Z,2.10
2023-01-25T09:26:55.891Z,2.10
2023-01-25T09:29:26.446Z,2.10
2023-01-25T09:31:53.495Z,2.20
2023-01-25T09:34:45.177Z,2.20
2023-01-25T09:37:18.882Z,2.20
2023-01-25T09:39:45.898Z,2.20
2023-01-25T09:42:32.897Z,2.20
2023-01-25T09:44:59.828Z,2.20
2023-01-25T09:47:35.096Z,2.20
2023-01-25T09:50:05.146Z,2.20
2023-01-25T09:52:55.723Z,2.20
2023-01-25T09:55:25.039Z,2.20
2023-01-25T09:57:54.231Z,2.20
2023-01-25T10:00:24.808Z,2.20
2023-01-25T10:02:58.665Z,2.20
2023-01-25T10:05:30.694Z,2.20
2023-01-25T10:08:00.789Z,2.20
2023-01-25T10:10:41.506Z,2.20
2023-01-25T10:13:12.160Z,2.30
2023-01-25T10:15:50.626Z,2.30
2023-01-25T10:18:20.726Z,2.30
2023-01-25T10:20:51.225Z,2.30
2023-01-25T10:23:36.934Z,2.30
2023-01-25T10:26:12.557Z,2.30
2023-01-25T10:28:53.372Z,2.30
2023-01-25T10:31:34.834Z,2.30
2023-01-25T10:34:02.412Z,2.30
2023-01-25T10:36:30.573Z,2.30
2023-01-25T10:39:01.061Z,2.30
2023-01-25T10:41:34.953Z,2.40
2023-01-25T10:44:21.133Z,2.30
2023-01-25T10:46:57.628Z,2.30
2023-01-25T10:49:30.862Z,2.30
2023-01-25T10:52:11.803Z,2.40
2023-01-25T10:54:38.825Z,2.40
2023-01-25T10:57:11.627Z,2.40
2023-01-25T10:59:39.258Z,2.40
2023-01-25T11:02:21.954Z,2.50
2023-01-25T11:04:48.993Z,2.50
2023-01-25T11:07:29.209Z,2.50
2023-01-25T11:09:56.249Z,2.50
2023-01-25T11:12:36.356Z,2.50
2023-01-25T11:15:23.490Z,2.60
2023-01-25T11:18:04.581Z,2.60
2023-01-25T11:20:31.530Z,2.60
2023-01-25T11:22:58.456Z,2.60
2023-01-25T11:25:25.514Z,2.60
2023-01-25T11:27:55.284Z,2.60
2023-01-25T11:30:22.251Z,2.60
2023-01-25T11:32:49.448Z,2.60
2023-01-25T11:35:19.032Z,2.60
2023-01-25T11:38:01.253Z,2.70
2023-01-25T11:40:37.130Z,2.80
2023-01-25T11:43:10.395Z,2.80
2023-01-25T11:45:53.308Z,2.80
2023-01-25T11:48:47.237Z,2.70
2023-01-25T11:51:43.363Z,2.80
2023-01-25T11:54:33.408Z,2.70
2023-01-25T11:57:24.320Z,2.70
2023-01-25T11:59:57.976Z,2.70
2023-01-25T12:02:38.417Z,2.80
2023-01-25T12:05:24.362Z,2.80
2023-01-25T12:08:00.308Z,2.80
2023-01-25T12:10:47.314Z,2.80
2023-01-25T12:13:21.047Z,2.80
2023-01-25T12:15:48.116Z,2.90
2023-01-25T12:18:15.530Z,2.90
2023-01-25T12:21:00.651Z,2.90
2023-01-25T12:23:27.620Z,3.00
2023-01-25T12:26:13.020Z,3.00
2023-01-25T12:28:44.937Z,3.00
2023-01-25T12:31:14.787Z,3.00
2023-01-25T12:33:52.572Z,3.00
2023-01-25T12:36:23.484Z,3.00
2023-01-25T12:39:04.919Z,2.90
2023-01-25T12:41:34.702Z,3.00
2023-01-25T12:44:20.395Z,3.00
2023-01-25T12:46:50.337Z,3.00
2023-01-25T12:49:37.392Z,3.00
2023-01-25T12:52:29.893Z,3.00
2023-01-25T12:55:00.479Z,2.90
2023-01-25T12:57:32.494Z,2.90
2023-01-25T13:00:19.039Z,2.90
2023-01-25T13:03:04.946Z,2.90
2023-01-25T13:05:37.716Z,2.90
2023-01-25T13:08:30.086Z,2.90
2023-01-25T13:11:04.079Z,2.90
2023-01-25T13:13:31.465Z,2.80
2023-01-25T13:16:16.075Z,2.90
2023-01-25T13:18:43.118Z,2.80
2023-01-25T13:21:11.601Z,2.80
2023-01-25T13:23:50.953Z,2.80
2023-01-25T13:26:21.124Z,2.80
2023-01-25T13:28:51.044Z,2.80
2023-01-25T13:31:50.668Z,2.80
2023-01-25T13:34:38.358Z,2.80
2023-01-25T13:37:20.380Z,2.90
2023-01-25T13:40:11.740Z,2.80
2023-01-25T13:42:58.630Z,2.80
2023-01-25T13:45:49.473Z,2.80
2023-01-25T13:48:24.083Z,2.80
2023-01-25T13:50:59.600Z,2.80
2023-01-25T13:53:46.432Z,2.80
2023-01-25T13:56:28.167Z,2.80
2023-01-25T13:59:08.432Z,2.80
2023-01-25T14:01:48.636Z,2.80
2023-01-25T14:04:38.508Z,2.80
2023-01-25T14:07:22.585Z,2.80
2023-01-25T14:10:14.610Z,2.90
2023-01-25T14:12:48.238Z,2.90
2023-01-25T14:15:18.378Z,2.90
2023-01-25T14:17:45.513Z,2.90
2023-01-25T14:20:22.771Z,2.80
2023-01-25T14:22:50.294Z,2.80
2023-01-25T14:25:19.249Z,2.80
2023-01-25T14:27:52.618Z,2.70
2023-01-25T14:30:27.629Z,2.70
2023-01-25T14:33:01.983Z,2.70
2023-01-25T14:38:27.238Z,2.70
2023-01-25T14:40:58.207Z,2.70
2023-01-25T14:43:25.837Z,2.80
2023-01-25T14:45:52.891Z,2.70
2023-01-25T14:48:35.902Z,2.70
2023-01-25T14:51:13.105Z,2.80
2023-01-25T14:54:04.504Z,2.70
2023-01-25T14:56:44.571Z,2.80
2023-01-25T14:59:36.925Z,2.70
2023-01-25T15:02:13.852Z,2.70
2023-01-25T15:04:51.105Z,2.70
2023-01-25T15:07:37.115Z,2.80
2023-01-25T15:10:14.477Z,2.80
2023-01-25T15:12:41.507Z,2.80
2023-01-25T15:15:18.464Z,2.70
2023-01-25T15:17:46.840Z,2.80
2023-01-25T15:20:30.675Z,2.70
2023-01-25T15:22:59.540Z,2.70
2023-01-25T15:25:26.595Z,2.80
2023-01-25T15:27:54.829Z,2.70
2023-01-25T15:30:21.933Z,2.70
2023-01-25T15:32:49.401Z,2.70
2023-01-25T15:35:20.759Z,2.70
2023-01-25T15:37:49.502Z,2.70
2023-01-25T15:40:17.316Z,2.70
2023-01-25T15:42:50.756Z,2.70
2023-01-25T15:45:24.255Z,2.80
2023-01-25T15:47:51.460Z,2.70
2023-01-25T15:50:19.417Z,2.80
2023-01-25T15:52:46.896Z,2.80
2023-01-25T15:55:14.675Z,2.80
2023-01-25T15:57:43.134Z,2.80
2023-01-25T16:00:27.659Z,2.80
2023-01-25T16:03:01.241Z,2.80
2023-01-25T16:05:28.357Z,2.80
2023-01-25T16:07:55.908Z,2.70
2023-01-25T16:10:24.263Z,2.70
2023-01-25T16:12:51.432Z,2.60
2023-01-25T16:15:18.586Z,2.60
2023-01-25T16:17:45.647Z,2.60
2023-01-25T16:20:20.796Z,2.70
2023-01-25T16:22:50.137Z,2.70
2023-01-25T16:25:17.140Z,2.60
2023-01-25T16:27:44.270Z,2.70
2023-01-25T16:30:19.400Z,2.70
2023-01-25T16:32:46.864Z,2.70
2023-01-25T16:35:13.997Z,2.70
2023-01-25T16:37:41.012Z,2.60
2023-01-25T16:40:18.886Z,2.60
2023-01-25T16:42:45.847Z,2.70
2023-01-25T16:45:12.923Z,2.60
2023-01-25T16:47:39.967Z,2.60
2023-01-25T16:50:12.882Z,2.60
2023-01-25T16:52:43.440Z,2.70
2023-01-25T16:55:14.033Z,2.70
2023-01-25T16:57:41.795Z,2.70
2023-01-25T17:00:12.783Z,2.70
2023-01-25T17:02:46.813Z,2.60
2023-01-25T17:05:24.399Z,2.60
2023-01-25T17:07:51.713Z,2.60
2023-01-25T17:10:18.782Z,2.60
2023-01-25T17:12:45.997Z,2.50
2023-01-25T17:15:26.607Z,2.50
2023-01-25T17:18:00.260Z,2.50
2023-01-25T17:20:27.226Z,2.50
2023-01-25T17:22:54.280Z,2.50
2023-01-25T17:25:21.315Z,2.50
2023-01-25T17:27:48.422Z,2.50
2023-01-25T17:30:15.549Z,2.50
2023-01-25T17:32:42.648Z,2.40
2023-01-25T17:35:09.724Z,2.50
2023-01-25T17:37:41.088Z,2.50
2023-01-25T17:40:09.159Z,2.50
2023-01-25T17:42:36.406Z,2.50
2023-01-25T17:45:03.706Z,2.50
2023-01-25T17:47:31.763Z,2.50
2023-01-25T17:49:58.766Z,2.50
2023-01-25T17:52:25.744Z,2.50
2023-01-25T17:54:52.735Z,2.50
2023-01-25T17:57:24.007Z,2.50
2023-01-25T17:59:51.128Z,2.50
2023-01-25T18:02:18.343Z,2.50
2023-01-25T18:04:45.423Z,2.50
2023-01-25T18:07:25.665Z,2.50
2023-01-25T18:10:05.870Z,2.50
2023-01-25T18:13:04.528Z,2.50
2023-01-25T18:15:44.917Z,2.50
2023-01-25T18:18:18.385Z,2.50
2023-01-25T18:20:45.314Z,2.50
2023-01-25T18:23:12.496Z,2.50
2023-01-25T18:25:39.460Z,2.50
2023-01-25T18:28:06.843Z,2.50
2023-01-25T18:30:41.858Z,2.50
2023-01-25T18:33:28.694Z,2.50
2023-01-25T18:36:03.997Z,2.60
2023-01-25T18:38:31.362Z,2.50
2023-01-25T18:40:58.710Z,2.60
2023-01-25T18:43:25.823Z,2.50
2023-01-25T18:45:57.202Z,2.50
2023-01-25T18:48:30.761Z,2.50
2023-01-25T18:51:04.996Z,2.60
2023-01-25T18:53:32.896Z,2.60
2023-01-25T18:56:00.373Z,2.60
2023-01-25T18:58:29.157Z,2.60
2023-01-25T19:01:03.653Z,2.60
2023-01-25T19:03:30.879Z,2.50
2023-01-25T19:05:58.688Z,2.50
2023-01-25T19:08:25.935Z,2.50
2023-01-25T19:11:00.405Z,2.50
2023-01-25T19:13:28.647Z,2.50
2023-01-25T19:16:10.863Z,2.50
2023-01-25T19:18:48.015Z,2.60
2023-01-25T19:21:15.839Z,2.60
2023-01-25T19:23:42.968Z,2.50
2023-01-25T19:26:17.537Z,2.50
2023-01-25T19:28:45.128Z,2.60
2023-01-25T19:31:13.928Z,2.60
2023-01-25T19:33:41.407Z,2.70
2023-01-25T19:36:12.242Z,2.70
2023-01-25T19:38:46.896Z,2.70
2023-01-25T19:41:18.797Z,2.70
2023-01-25T19:43:45.869Z,2.70
2023-01-25T19:46:14.688Z,2.70
2023-01-25T19:48:42.353Z,2.70
2023-01-25T19:51:10.741Z,2.70
2023-01-25T19:53:38.312Z,2.60
2023-01-25T19:56:06.260Z,2.60
2023-01-25T19:58:33.159Z,2.60
2023-01-25T20:01:06.946Z,2.60
2023-01-25T20:03:46.856Z,2.60
2023-01-25T20:06:20.993Z,2.60
2023-01-25T20:08:48.035Z,2.60
2023-01-25T20:11:16.571Z,2.50
2023-01-25T20:13:43.823Z,2.50
2023-01-25T20:16:11.805Z,2.50
2023-01-25T20:18:39.449Z,2.40
2023-01-25T20:21:07.717Z,2.30
2023-01-25T20:23:35.661Z,2.30
2023-01-25T20:26:03.936Z,2.30
2023-01-25T20:28:32.293Z,2.20
2023-01-25T20:31:03.740Z,2.20
2023-01-25T20:33:34.320Z,2.20
2023-01-25T20:36:05.384Z,2.20
2023-01-25T20:38:32.887Z,2.20
2023-01-25T20:41:04.642Z,2.10
2023-01-25T20:43:31.804Z,2.10
2023-01-25T20:46:00.495Z,2.20
2023-01-25T20:48:27.955Z,2.20
2023-01-25T20:51:01.951Z,2.20
2023-01-25T20:53:30.064Z,2.20
2023-01-25T20:55:57.741Z,2.10
2023-01-25T20:58:24.723Z,2.10
2023-01-25T21:00:51.845Z,2.10
2023-01-25T21:03:18.835Z,2.10
2023-01-25T21:06:01.994Z,2.10
2023-01-25T21:08:41.968Z,2.00
2023-01-25T21:11:29.872Z,2.00
2023-01-25T21:14:05.819Z,2.00
2023-01-25T21:16:32.984Z,2.00
2023-01-25T21:19:04.330Z,2.00
2023-01-25T21:21:32.069Z,2.00
2023-01-25T21:24:00.221Z,2.10
2023-01-25T21:26:41.878Z,2.00
2023-01-25T21:29:22.035Z,2.00
2023-01-25T21:31:55.825Z,2.00
2023-01-25T21:34:22.953Z,2.00
2023-01-25T21:36:50.604Z,2.00
2023-01-25T21:39:17.514Z,2.00
2023-01-25T21:41:44.468Z,2.00
2023-01-25T21:44:30.043Z,2.00
2023-01-25T21:47:27.500Z,1.90
2023-01-25T21:50:02.917Z,1.90
2023-01-25T21:52:29.968Z,2.00
2023-01-25T21:54:56.936Z,2.00
2023-01-25T21:57:23.931Z,2.00
2023-01-25T21:59:53.825Z,2.00
2023-01-25T22:02:21.294Z,2.00
2023-01-25T22:04:48.263Z,2.00
2023-01-25T22:07:15.427Z,2.00
2023-01-25T22:09:42.423Z,2.10
2023-01-25T22:12:09.539Z,2.10
2023-01-25T22:14:40.329Z,2.10
2023-01-25T22:17:07.426Z,2.00
2023-01-25T22:19:34.373Z,2.00
2023-01-25T22:22:02.540Z,2.00
2023-01-25T22:24:29.496Z,2.00
2023-01-25T22:27:22.018Z,2.00
2023-01-25T22:29:55.751Z,2.00
2023-01-25T22:32:22.687Z,2.00
2023-01-25T22:34:49.693Z,2.00
2023-01-25T22:37:16.607Z,1.90
2023-01-25T22:39:44.881Z,1.90
2023-01-25T22:42:11.882Z,1.90
2023-01-25T22:44:38.806Z,1.90
2023-01-25T22:47:05.838Z,1.90
2023-01-25T22:49:32.829Z,1.90
2023-01-25T22:52:00.168Z,1.90
2023-01-25T22:54:27.986Z,1.90
2023-01-25T22:56:55.039Z,2.00
2023-01-25T22:59:21.916Z,2.00
2023-01-25T23:01:48.811Z,2.00
2023-01-25T23:04:22.002Z,2.00
2023-01-25T23:07:12.678Z,2.00
2023-01-25T23:09:40.425Z,2.00
2023-01-25T23:12:07.551Z,2.10
2023-01-25T23:14:54.092Z,2.10
2023-01-25T23:17:41.090Z,2.00
2023-01-25T23:20:09.820Z,2.00
2023-01-25T23:22:37.411Z,2.10
2023-01-25T23:25:08.547Z,2.00
2023-01-25T23:27:35.641Z,2.00
2023-01-25T23:30:07.322Z,2.00
2023-01-25T23:32:34.241Z,2.00
2023-01-25T23:35:02.328Z,2.10
2023-01-25T23:37:31.700Z,2.10
2023-01-25T23:39:58.703Z,2.10
2023-01-25T23:42:25.605Z,2.10
2023-01-25T23:44:52.510Z,2.20
2023-01-25T23:47:19.514Z,2.10
2023-01-25T23:50:00.125Z,2.10
2023-01-25T23:52:35.066Z,2.20
2023-01-25T23:55:02.702Z,2.20
2023-01-25T23:57:29.718Z,2.10
2023-01-25T23:59:58.858Z,2.20
